createdAt,value
2023-02-04T00:00:16.274Z,102328.09
2023-02-04T00:02:43.315Z,102337.94
2023-02-04T00:05:14.142Z,102336.19
2023-02-04T00:07:41.517Z,102336.19
2023-02-04T00:10:10.367Z,102354.94
2023-02-04T00:12:37.280Z,102347.81
2023-02-04T00:15:05.320Z,102354.06
2023-02-04T00:17:32.235Z,102350.63
2023-02-04T00:19:59.155Z,102361.22
2023-02-04T00:22:28.218Z,102360.28
2023-02-04T00:24:55.155Z,102370.16
2023-02-04T00:27:22.375Z,102383.63
2023-02-04T00:29:49.290Z,102387.19
2023-02-04T00:32:16.322Z,102400.56
2023-02-04T00:34:43.298Z,102407.78
2023-02-04T00:37:10.240Z,102408.53
2023-02-04T00:39:38.208Z,102407.63
2023-02-04T00:42:06.883Z,102425.38
2023-02-04T00:44:36.560Z,102423.63
2023-02-04T00:47:04.228Z,102427.16
2023-02-04T00:49:31.188Z,102428.97
2023-02-04T00:51:58.145Z,102431.72
2023-02-04T00:54:26.514Z,102446.88
2023-02-04T00:56:53.688Z,102442.53
2023-02-04T00:59:20.594Z,102460.50
2023-02-04T01:01:47.512Z,102459.94
2023-02-04T01:04:15.051Z,102467.09
2023-02-04T01:06:42.007Z,102477.22
2023-02-04T01:09:10.221Z,102479.97
2023-02-04T01:11:37.555Z,102481.06
2023-02-04T01:14:04.655Z,102491.84
2023-02-04T01:16:32.258Z,102484.94
2023-02-04T01:19:00.368Z,102498.41
2023-02-04T01:21:27.326Z,102489.75
2023-02-04T01:23:54.316Z,102495.25
2023-02-04T01:26:21.658Z,102511.22
2023-02-04T01:28:48.592Z,102508.75
2023-02-04T01:31:16.238Z,102523.09
2023-02-04T01:33:43.435Z,102528.59
2023-02-04T01:36:11.884Z,102533.94
2023-02-04T01:38:38.791Z,102530.56
2023-02-04T01:41:06.356Z,102530.56
2023-02-04T01:43:34.131Z,102537.75
2023-02-04T01:46:02.578Z,102544.94
2023-02-04T01:48:30.488Z,102523.19
2023-02-04T01:51:26.928Z,102556.78
2023-02-04T01:53:55.346Z,102551.50
2023-02-04T01:56:26.758Z,102562.13
2023-02-04T01:58:57.622Z,102563.09
2023-02-04T02:01:46.659Z,102557.94
2023-02-04T02:04:17.667Z,102561.47
2023-02-04T02:06:52.446Z,102564.16
2023-02-04T02:09:19.895Z,102569.59
2023-02-04T02:11:47.067Z,102575.78
2023-02-04T02:14:15.019Z,102583.78
2023-02-04T02:16:42.072Z,102601.66
2023-02-04T02:19:14.755Z,102611.53
2023-02-04T02:21:55.024Z,102611.53
2023-02-04T02:24:30.166Z,102624.91
2023-02-04T02:27:01.332Z,102603.00
2023-02-04T02:29:28.552Z,102623.31
2023-02-04T02:31:59.883Z,102635.75
2023-02-04T02:34:28.517Z,102631.50
2023-02-04T02:36:57.009Z,102636.97
2023-02-04T02:39:25.188Z,102652.13
2023-02-04T02:41:52.920Z,102651.28
2023-02-04T02:44:19.966Z,102635.38
2023-02-04T02:46:46.935Z,102660.34
2023-02-04T02:49:19.323Z,102655.16
2023-02-04T02:51:48.730Z,102660.53
2023-02-04T02:54:29.894Z,102657.06
2023-02-04T02:57:00.491Z,102656.28
2023-02-04T02:59:27.836Z,102647.44
2023-02-04T03:02:01.526Z,102658.19
2023-02-04T03:04:34.644Z,102652.97
2023-02-04T03:07:03.342Z,102659.31
2023-02-04T03:09:30.508Z,102671.91
2023-02-04T03:11:57.459Z,102677.34
2023-02-04T03:14:25.619Z,102669.41
2023-02-04T03:16:54.406Z,102679.28
2023-02-04T03:19:23.508Z,102684.69
2023-02-04T03:21:50.523Z,102677.63
2023-02-04T03:24:17.833Z,102680.34
2023-02-04T03:26:44.905Z,102695.50
2023-02-04T03:29:12.431Z,102707.28
2023-02-04T03:31:39.514Z,102699.47
2023-02-04T03:34:06.473Z,102713.72
2023-02-04T03:36:33.437Z,102725.34
2023-02-04T03:39:00.404Z,102734.28
2023-02-04T03:41:27.306Z,102728.22
2023-02-04T03:43:54.199Z,102723.03
2023-02-04T03:46:23.616Z,102729.25
2023-02-04T03:48:50.559Z,102738.22
2023-02-04T03:51:17.536Z,102735.69
2023-02-04T03:53:44.440Z,102749.91
2023-02-04T03:56:11.363Z,102749.03
2023-02-04T03:58:38.428Z,102757.13
2023-02-04T04:01:05.468Z,102768.66
2023-02-04T04:03:32.372Z,102782.06
2023-02-04T04:05:59.259Z,102783.03
2023-02-04T04:08:26.157Z,102775.94
2023-02-04T04:10:53.024Z,102784.84
2023-02-04T04:13:19.919Z,102770.75
2023-02-04T04:15:46.851Z,102779.59
2023-02-04T04:18:13.780Z,102780.56
2023-02-04T04:20:40.685Z,102792.09
2023-02-04T04:23:07.583Z,102800.13
2023-02-04T04:25:34.551Z,102804.66
2023-02-04T04:28:01.809Z,102805.63
2023-02-04T04:30:28.828Z,102811.00
2023-02-04T04:32:55.749Z,102820.81
2023-02-04T04:35:22.694Z,102828.78
2023-02-04T04:37:49.666Z,102828.81
2023-02-04T04:40:16.554Z,102822.63
2023-02-04T04:42:43.500Z,102837.72
2023-02-04T04:45:11.640Z,102841.25
2023-02-04T04:47:38.576Z,102837.75
2023-02-04T04:50:05.803Z,102850.16
2023-02-04T04:52:32.750Z,102848.41
2023-02-04T04:54:59.677Z,102837.78
2023-02-04T04:57:26.581Z,102834.28
2023-02-04T04:59:53.495Z,102841.41
2023-02-04T05:02:20.450Z,102850.34
2023-02-04T05:04:47.374Z,102847.69
2023-02-04T05:07:14.266Z,102852.97
2023-02-04T05:09:41.403Z,102859.28
2023-02-04T05:12:08.473Z,102857.56
2023-02-04T05:14:35.479Z,102869.09
2023-02-04T05:17:02.393Z,102868.31
2023-02-04T05:19:29.325Z,102878.06
2023-02-04T05:21:57.409Z,102870.19
2023-02-04T05:24:24.368Z,102887.91
2023-02-04T05:26:51.362Z,102889.72
2023-02-04T05:29:18.245Z,102889.81
2023-02-04T05:31:45.251Z,102888.97
2023-02-04T05:34:12.167Z,102888.97
2023-02-04T05:36:39.076Z,102891.72
2023-02-04T05:39:06.051Z,102886.41
2023-02-04T05:41:33.130Z,102895.31
2023-02-04T05:44:00.108Z,102891.81
2023-02-04T05:46:27.094Z,102891.84
2023-02-04T05:48:54.042Z,102897.13
2023-02-04T05:51:20.929Z,102907.81
2023-02-04T05:53:47.885Z,102904.28
2023-02-04T05:56:14.812Z,102901.72
2023-02-04T05:58:41.850Z,102910.53
2023-02-04T06:01:08.912Z,102923.88
2023-02-04T06:03:35.972Z,102926.59
2023-02-04T06:06:02.986Z,102930.16
2023-02-04T06:08:29.894Z,102938.97
2023-02-04T06:10:56.818Z,102934.63
2023-02-04T06:13:24.031Z,102932.88
2023-02-04T06:15:50.948Z,102924.09
2023-02-04T06:18:17.966Z,102938.25
2023-02-04T06:20:44.877Z,102947.13
2023-02-04T06:23:11.752Z,102962.25
2023-02-04T06:25:38.708Z,102960.47
2023-02-04T06:28:05.658Z,102951.66
2023-02-04T06:30:33.220Z,102955.25
2023-02-04T06:33:00.362Z,102951.75
2023-02-04T06:35:27.244Z,102968.56
2023-02-04T06:37:54.148Z,102963.28
2023-02-04T06:40:21.042Z,102976.59
2023-02-04T06:42:48.094Z,102973.16
2023-02-04T06:45:15.091Z,102989.97
2023-02-04T06:47:42.098Z,102990.88
2023-02-04T06:50:09.591Z,103001.47
2023-02-04T06:52:37.173Z,102997.97
2023-02-04T06:55:04.419Z,103002.47
2023-02-04T06:57:31.448Z,103002.50
2023-02-04T06:59:58.426Z,103000.78
2023-02-04T07:02:25.370Z,103013.22
2023-02-04T07:04:52.261Z,103009.72
2023-02-04T07:07:19.187Z,103015.94
2023-02-04T07:09:46.072Z,103027.50
2023-02-04T07:12:14.374Z,103022.19
2023-02-04T07:14:42.835Z,103017.78
2023-02-04T07:17:09.836Z,103023.13
2023-02-04T07:19:36.920Z,103033.78
2023-02-04T07:22:05.036Z,103035.59
2023-02-04T07:24:32.197Z,103040.06
2023-02-04T07:26:59.748Z,103027.69
2023-02-04T07:29:27.209Z,103028.66
2023-02-04T07:31:54.658Z,103035.78
2023-02-04T07:34:21.805Z,103050.00
2023-02-04T07:36:48.925Z,103054.47
2023-02-04T07:39:15.915Z,103059.81
2023-02-04T07:41:42.780Z,103050.97
2023-02-04T07:44:12.188Z,103070.47
2023-02-04T07:46:39.130Z,103075.84
2023-02-04T07:49:06.048Z,103068.75
2023-02-04T07:51:33.180Z,103083.81
2023-02-04T07:54:00.195Z,103074.97
2023-02-04T07:56:27.112Z,103096.19
2023-02-04T07:58:54.082Z,103088.16
2023-02-04T08:01:21.039Z,103089.91
2023-02-04T08:03:47.953Z,103094.31
2023-02-04T08:06:14.860Z,103084.47
2023-02-04T08:08:41.772Z,103085.31
2023-02-04T08:11:08.745Z,103096.81
2023-02-04T08:13:35.738Z,103106.53
2023-02-04T08:16:02.757Z,103102.94
2023-02-04T08:18:30.312Z,103096.69
2023-02-04T08:20:59.032Z,103108.13
2023-02-04T08:23:25.947Z,103118.69
2023-02-04T08:25:52.870Z,103115.09
2023-02-04T08:28:19.879Z,103115.97
2023-02-04T08:30:46.948Z,103124.75
2023-02-04T08:33:13.873Z,103127.25
2023-02-04T08:35:40.862Z,103128.91
2023-02-04T08:38:07.779Z,103137.69
2023-02-04T08:40:34.862Z,103138.53
2023-02-04T08:43:01.761Z,103137.72
2023-02-04T08:45:28.679Z,103128.84
2023-02-04T08:47:55.619Z,103144.81
2023-02-04T08:50:22.508Z,103159.97
2023-02-04T08:52:49.401Z,103160.84
2023-02-04T08:55:16.352Z,103168.78
2023-02-04T08:57:43.266Z,103164.19
2023-02-04T09:00:12.241Z,103156.88
2023-02-04T09:02:39.168Z,103154.81
2023-02-04T09:05:06.646Z,103154.53
2023-02-04T09:07:33.580Z,103168.25
2023-02-04T09:10:00.544Z,103151.09
2023-02-04T09:12:27.459Z,103163.22
2023-02-04T09:14:54.391Z,103163.81
2023-02-04T09:17:21.328Z,103170.78
2023-02-04T09:19:48.198Z,103166.22
2023-02-04T09:22:15.388Z,103178.66
2023-02-04T09:24:42.282Z,103171.56
2023-02-04T09:27:09.305Z,103193.72
2023-02-04T09:29:36.208Z,103180.19
2023-02-04T09:32:03.137Z,103181.56
2023-02-04T09:34:30.065Z,103177.66
2023-02-04T09:36:57.020Z,103195.94
2023-02-04T09:39:23.889Z,103199.25
2023-02-04T09:41:53.875Z,103192.72
2023-02-04T09:44:25.183Z,103189.00
2023-02-04T09:46:56.341Z,103179.81
2023-02-04T09:49:23.755Z,103195.66
2023-02-04T09:51:51.284Z,103186.56
2023-02-04T09:54:22.852Z,103205.47
2023-02-04T09:56:50.751Z,103197.69
2023-02-04T09:59:23.675Z,103200.97
2023-02-04T10:01:58.104Z,103207.03
2023-02-04T10:04:25.317Z,103210.31
2023-02-04T10:06:52.335Z,103210.84
2023-02-04T10:09:19.575Z,103212.06
2023-02-04T10:11:48.735Z,103207.03
2023-02-04T10:14:21.708Z,103221.47
2023-02-04T10:16:59.365Z,103225.16
2023-02-04T10:19:28.860Z,103218.19
2023-02-04T10:21:56.821Z,103214.63
2023-02-04T10:24:26.717Z,103220.88
2023-02-04T10:26:54.590Z,103229.00
2023-02-04T10:29:25.779Z,103231.22
2023-02-04T10:31:53.359Z,103231.59
2023-02-04T10:34:40.054Z,103234.03
2023-02-04T10:37:27.521Z,103230.16
2023-02-04T10:39:54.686Z,103231.59
2023-02-04T10:42:30.696Z,103230.72
2023-02-04T10:44:58.550Z,103230.38
2023-02-04T10:47:30.796Z,103237.09
2023-02-04T10:50:19.300Z,103232.00
2023-02-04T10:53:15.716Z,103233.81
2023-02-04T10:55:46.838Z,103236.56
2023-02-04T10:58:27.127Z,103236.59
2023-02-04T11:00:54.388Z,103233.03
2023-02-04T11:03:32.933Z,103216.69
2023-02-04T11:06:01.397Z,103221.75
2023-02-04T11:08:33.717Z,103230.50
2023-02-04T11:11:17.099Z,103225.41
2023-02-04T11:13:49.641Z,103231.41
2023-02-04T11:16:26.243Z,103225.47
2023-02-04T11:18:56.897Z,103224.78
2023-02-04T11:21:41.559Z,103228.09
2023-02-04T11:24:14.248Z,103227.94
2023-02-04T11:26:47.608Z,103224.34
2023-02-04T11:29:25.606Z,103224.34
2023-02-04T11:31:52.502Z,103226.09
2023-02-04T11:34:19.518Z,103230.44
2023-02-04T11:37:09.104Z,103217.41
2023-02-04T11:39:38.321Z,103230.81
2023-02-04T11:42:25.169Z,103230.59
2023-02-04T11:45:13.047Z,103226.25
2023-02-04T11:47:40.649Z,103230.59
2023-02-04T11:50:30.616Z,103233.16
2023-02-04T11:53:02.021Z,103221.16
2023-02-04T11:55:31.760Z,103223.72
2023-02-04T11:57:58.895Z,103234.31
2023-02-04T12:00:34.601Z,103228.72
2023-02-04T12:03:21.352Z,103209.31
2023-02-04T12:05:49.657Z,103218.13
2023-02-04T12:08:22.275Z,103225.22
2023-02-04T12:11:05.322Z,103219.31
2023-02-04T12:13:33.288Z,103229.81
2023-02-04T12:16:06.133Z,103230.31
2023-02-04T12:18:35.253Z,103236.34
2023-02-04T12:21:04.329Z,103234.94
2023-02-04T12:23:31.648Z,103237.00
2023-02-04T12:25:58.967Z,103235.34
2023-02-04T12:28:27.985Z,103236.22
2023-02-04T12:30:56.002Z,103240.31
2023-02-04T12:33:23.263Z,103245.59
2023-02-04T12:35:50.381Z,103248.34
2023-02-04T12:38:18.373Z,103254.09
2023-02-04T12:40:46.364Z,103247.63
2023-02-04T12:43:13.258Z,103248.91
2023-02-04T12:45:45.479Z,103247.84
2023-02-04T12:48:13.922Z,103253.88
2023-02-04T12:50:41.265Z,103260.91
2023-02-04T12:53:08.902Z,103257.81
2023-02-04T12:55:47.275Z,103254.47
2023-02-04T12:58:14.302Z,103236.25
2023-02-04T13:00:42.194Z,103237.50
2023-02-04T13:03:09.099Z,103242.66
2023-02-04T13:05:36.090Z,103242.00
2023-02-04T13:08:03.013Z,103247.00
2023-02-04T13:10:29.899Z,103246.13
2023-02-04T13:12:56.815Z,103238.88
2023-02-04T13:15:23.762Z,103242.59
2023-02-04T13:17:50.728Z,103247.88
2023-02-04T13:20:18.231Z,103256.56
2023-02-04T13:22:45.159Z,103248.59
2023-02-04T13:25:12.108Z,103251.75
2023-02-04T13:27:39.525Z,103245.13
2023-02-04T13:30:08.940Z,103248.59
2023-02-04T13:32:35.897Z,103240.25
2023-02-04T13:35:02.829Z,103236.81
2023-02-04T13:37:29.693Z,103243.88
2023-02-04T13:39:56.652Z,103235.47
2023-02-04T13:42:23.598Z,103246.31
2023-02-04T13:44:50.478Z,103232.78
2023-02-04T13:47:17.418Z,103243.22
2023-02-04T13:49:44.287Z,103247.31
2023-02-04T13:52:11.215Z,103245.38
2023-02-04T13:54:38.082Z,103250.50
2023-02-04T13:57:05.598Z,103259.44
2023-02-04T13:59:32.537Z,103249.56
2023-02-04T14:01:59.513Z,103249.56
2023-02-04T14:04:27.076Z,103250.38
2023-02-04T14:06:55.056Z,103245.06
2023-02-04T14:09:22.525Z,103245.47
2023-02-04T14:11:49.410Z,103246.44
2023-02-04T14:14:16.334Z,103257.81
2023-02-04T14:16:43.317Z,103254.41
2023-02-04T14:19:10.242Z,103261.13
2023-02-04T14:21:37.271Z,103259.97
2023-02-04T14:24:04.289Z,103266.06
2023-02-04T14:26:31.225Z,103260.53
2023-02-04T14:28:58.101Z,103263.81
2023-02-04T14:31:24.974Z,103266.56
2023-02-04T14:33:51.917Z,103271.34
2023-02-04T14:36:18.932Z,103266.25
2023-02-04T14:38:45.776Z,103272.22
2023-02-04T14:41:16.193Z,103265.50
2023-02-04T14:43:43.172Z,103258.09
2023-02-04T14:46:10.192Z,103269.81
2023-02-04T14:48:37.109Z,103272.97
2023-02-04T14:51:04.690Z,103275.19
2023-02-04T14:53:31.790Z,103277.41
2023-02-04T14:55:58.691Z,103273.94
2023-02-04T14:58:27.845Z,103270.19
2023-02-04T15:00:55.549Z,103260.31
2023-02-04T15:03:22.932Z,103266.97
2023-02-04T15:05:49.818Z,103279.97
2023-02-04T15:08:16.735Z,103280.16
2023-02-04T15:10:43.606Z,103279.47
2023-02-04T15:13:11.209Z,103290.47
2023-02-04T15:15:38.163Z,103295.06
2023-02-04T15:18:05.127Z,103281.88
2023-02-04T15:20:32.273Z,103284.69
2023-02-04T15:23:00.785Z,103290.09
2023-02-04T15:25:27.982Z,103284.09
2023-02-04T15:27:54.990Z,103280.66
2023-02-04T15:30:21.921Z,103279.94
2023-02-04T15:32:48.871Z,103294.25
2023-02-04T15:35:15.779Z,103295.22
2023-02-04T15:37:42.662Z,103297.94
2023-02-04T15:40:10.744Z,103296.28
2023-02-04T15:42:37.667Z,103290.97
2023-02-04T15:45:05.414Z,103293.81
2023-02-04T15:47:32.401Z,103290.50
2023-02-04T15:49:59.387Z,103298.69
2023-02-04T15:52:27.864Z,103291.84
2023-02-04T15:54:56.036Z,103291.13
2023-02-04T15:57:22.910Z,103296.69
2023-02-04T15:59:49.803Z,103290.59
2023-02-04T16:02:16.729Z,103297.81
2023-02-04T16:04:45.222Z,103289.16
2023-02-04T16:07:12.424Z,103268.84
2023-02-04T16:09:39.466Z,103275.19
2023-02-04T16:12:06.575Z,103278.06
2023-02-04T16:14:33.493Z,103284.44
2023-02-04T16:17:01.699Z,103276.53
2023-02-04T16:19:29.149Z,103287.22
2023-02-04T16:21:56.305Z,103278.44
2023-02-04T16:24:23.235Z,103288.25
2023-02-04T16:26:50.152Z,103283.91
2023-02-04T16:29:17.321Z,103289.16
2023-02-04T16:31:44.335Z,103280.34
2023-02-04T16:34:11.289Z,103290.09
2023-02-04T16:36:38.179Z,103290.09
2023-02-04T16:39:05.053Z,103282.13
2023-02-04T16:41:31.984Z,103293.72
2023-02-04T16:44:00.072Z,103285.00
2023-02-04T16:46:28.646Z,103297.56
2023-02-04T16:48:55.644Z,103306.59
2023-02-04T16:51:22.552Z,103305.81
2023-02-04T16:53:50.375Z,103305.81
2023-02-04T16:56:17.467Z,103309.41
2023-02-04T16:58:45.547Z,103305.06
2023-02-04T17:01:12.497Z,103321.06
2023-02-04T17:03:39.845Z,103317.66
2023-02-04T17:06:07.046Z,103315.03
2023-02-04T17:08:34.019Z,103324.88
2023-02-04T17:11:19.565Z,103322.38
2023-02-04T17:13:46.508Z,103327.91
2023-02-04T17:16:13.600Z,103331.56
2023-02-04T17:18:40.517Z,103331.59
2023-02-04T17:21:07.435Z,103336.91
2023-02-04T17:23:35.372Z,103335.16
2023-02-04T17:26:02.647Z,103334.34
2023-02-04T17:28:29.563Z,103333.47
2023-02-04T17:30:56.610Z,103336.13
2023-02-04T17:33:23.630Z,103337.84
2023-02-04T17:35:50.548Z,103344.13
2023-02-04T17:38:17.467Z,103343.25
2023-02-04T17:40:44.441Z,103346.88
2023-02-04T17:43:11.352Z,103343.38
2023-02-04T17:45:38.428Z,103339.81
2023-02-04T17:48:05.487Z,103332.75
2023-02-04T17:53:04.462Z,103335.53
2023-02-04T17:55:33.943Z,103340.91
2023-02-04T17:58:24.098Z,103343.50
2023-02-04T18:00:53.223Z,103340.06
2023-02-04T18:03:23.534Z,103340.94
2023-02-04T18:05:54.489Z,103335.66
2023-02-04T18:08:25.399Z,103344.53
2023-02-04T18:10:55.137Z,103335.66
2023-02-04T18:13:32.851Z,103341.03
2023-02-04T18:16:08.128Z,103334.88
2023-02-04T18:18:40.531Z,103334.06
2023-02-04T18:21:28.178Z,103330.50
2023-02-04T18:24:39.749Z,103327.88
2023-02-04T18:27:18.012Z,103336.78
2023-02-04T18:29:49.594Z,103336.91
2023-02-04T18:32:37.304Z,103335.13
2023-02-04T18:35:20.855Z,103347.59
2023-02-04T18:37:51.146Z,103344.09
2023-02-04T18:40:30.382Z,103335.22
2023-02-04T18:43:13.995Z,103331.69
2023-02-04T18:45:41.145Z,103335.31
2023-02-04T18:48:19.899Z,103349.50
2023-02-04T18:50:52.359Z,103353.09
2023-02-04T18:53:28.777Z,103338.91
2023-02-04T18:55:58.547Z,103348.69
2023-02-04T18:58:37.579Z,103350.53
2023-02-04T19:01:16.932Z,103350.56
2023-02-04T19:03:53.639Z,103347.03
2023-02-04T19:06:37.565Z,103350.56
2023-02-04T19:09:10.404Z,103359.47
2023-02-04T19:11:45.069Z,103372.78
2023-02-04T19:14:31.161Z,103371.88
2023-02-04T19:17:29.156Z,103380.84
2023-02-04T19:20:01.921Z,103375.53
2023-02-04T19:22:47.786Z,103383.59
2023-02-04T19:25:35.787Z,103389.88
2023-02-04T19:28:28.818Z,103376.63
2023-02-04T19:31:01.857Z,103372.22
2023-02-04T19:33:42.453Z,103376.72
2023-02-04T19:36:30.246Z,103363.41
2023-02-04T19:39:07.143Z,103359.06
2023-02-04T19:41:46.999Z,103367.09
2023-02-04T19:44:13.943Z,103368.88
2023-02-04T19:46:41.986Z,103373.34
2023-02-04T19:49:25.698Z,103371.56
2023-02-04T19:51:58.474Z,103369.84
2023-02-04T19:54:43.153Z,103369.88
2023-02-04T19:57:25.507Z,103369.00
2023-02-04T19:59:56.712Z,103365.50
2023-02-04T20:02:36.523Z,103375.25
2023-02-04T20:05:17.433Z,103372.63
2023-02-04T20:07:44.318Z,103354.00
2023-02-04T20:10:11.058Z,103364.66
2023-02-04T20:12:40.718Z,103360.28
2023-02-04T20:15:18.932Z,103364.75
2023-02-04T20:17:48.345Z,103364.72
2023-02-04T20:20:15.218Z,103367.41
2023-02-04T20:22:54.470Z,103354.97
2023-02-04T20:25:21.633Z,103369.19
2023-02-04T20:27:58.255Z,103357.69
2023-02-04T20:30:31.020Z,103355.91
2023-02-04T20:33:19.822Z,103351.50
2023-02-04T20:35:52.456Z,103347.09
2023-02-04T20:38:20.425Z,103347.13
2023-02-04T20:40:47.650Z,103348.94
2023-02-04T20:43:19.792Z,103348.94
2023-02-04T20:45:57.095Z,103341.88
2023-02-04T20:48:43.978Z,103343.66
2023-02-04T20:51:23.931Z,103341.91
2023-02-04T20:53:53.094Z,103332.16
2023-02-04T20:56:35.512Z,103330.41
2023-02-04T20:59:24.875Z,103329.50
2023-02-04T21:01:51.847Z,103319.81
2023-02-04T21:04:34.415Z,103313.63
2023-02-04T21:07:12.363Z,103326.91
2023-02-04T21:09:40.123Z,103318.03
2023-02-04T21:12:07.348Z,103318.94
2023-02-04T21:14:34.564Z,103315.41
2023-02-04T21:17:01.756Z,103318.09
2023-02-04T21:19:28.776Z,103323.41
2023-02-04T21:21:57.404Z,103331.38
2023-02-04T21:24:26.244Z,103335.81
2023-02-04T21:26:53.637Z,103312.81
2023-02-04T21:29:20.542Z,103338.47
2023-02-04T21:31:47.476Z,103338.50
2023-02-04T21:34:15.675Z,103337.63
2023-02-04T21:36:42.579Z,103330.53
2023-02-04T21:39:09.458Z,103329.66
2023-02-04T21:41:36.349Z,103332.31
2023-02-04T21:44:03.699Z,103322.59
2023-02-04T21:46:30.598Z,103327.88
2023-02-04T21:48:57.526Z,103319.94
2023-02-04T21:51:24.477Z,103317.28
2023-02-04T21:53:51.362Z,103326.16
2023-02-04T21:56:18.269Z,103320.84
2023-02-04T21:58:45.157Z,103312.88
2023-02-04T22:01:12.052Z,103318.19
2023-02-04T22:03:38.965Z,103318.16
2023-02-04T22:06:06.241Z,103319.00
2023-02-04T22:08:33.176Z,103313.66
2023-02-04T22:11:00.596Z,103312.72
2023-02-04T22:13:27.533Z,103314.50
2023-02-04T22:15:54.540Z,103308.25
2023-02-04T22:18:21.642Z,103310.03
2023-02-04T22:20:48.631Z,103311.81
2023-02-04T22:23:16.578Z,103292.31
2023-02-04T22:25:43.640Z,103295.81
2023-02-04T22:28:10.611Z,103287.78
2023-02-04T22:30:37.988Z,103292.16
2023-02-04T22:33:05.143Z,103305.41
2023-02-04T22:35:35.024Z,103303.56
2023-02-04T22:38:03.261Z,103302.59
2023-02-04T22:40:30.408Z,103300.72
2023-02-04T22:42:57.461Z,103296.22
2023-02-04T22:45:24.395Z,103285.47
2023-02-04T22:47:51.257Z,103291.53
2023-02-04T22:50:18.225Z,103292.38
2023-02-04T22:52:45.127Z,103293.38
2023-02-04T22:55:12.096Z,103292.66
2023-02-04T22:57:39.046Z,103295.50
2023-02-04T23:00:09.261Z,103286.72
2023-02-04T23:02:36.302Z,103302.72
2023-02-04T23:05:03.540Z,103284.13
2023-02-04T23:07:31.210Z,103290.38
2023-02-04T23:09:58.146Z,103288.63
2023-02-04T23:12:25.283Z,103278.94
2023-02-04T23:14:52.188Z,103279.84
2023-02-04T23:17:19.101Z,103295.75
2023-02-04T23:19:46.354Z,103287.66
2023-02-04T23:22:14.503Z,103298.09
2023-02-04T23:24:42.048Z,103288.19
2023-02-04T23:27:11.219Z,103283.75
2023-02-04T23:29:39.813Z,103291.81
2023-02-04T23:32:07.611Z,103291.81
2023-02-04T23:34:35.231Z,103267.06
2023-02-04T23:37:02.393Z,103276.88
2023-02-04T23:39:29.361Z,103272.44
2023-02-04T23:41:56.705Z,103288.16
2023-02-04T23:44:23.614Z,103285.19
2023-02-04T23:46:50.546Z,103273.38
2023-02-04T23:49:17.496Z,103262.50
2023-02-04T23:51:44.460Z,103257.13
2023-02-04T23:54:12.013Z,103263.28
2023-02-04T23:56:38.989Z,103256.06
2023-02-04T23:59:06.155Z,103255.03
